This is the latest recevied weather packets stored in our database for station/object W7TRD. If no packets are shown the sender has not sent any weather packets the latest 10 day(s).
| Time | Temp. | Humidity | Pressure | Rain* | Wind** | Luminosity | Snow |
|---|---|---|---|---|---|---|---|
| 1777650697 | 15° C | 75% | 1018.3 hPa | 0 mm | - | 341 W/m² | - |
| 1777650394 | 14.44° C | 76% | 1018.4 hPa | 0 mm | - | 337 W/m² | - |
| 1777650091 | 15° C | 77% | 1018.2 hPa | 0 mm | - | 309 W/m² | - |
| 1777649788 | 15° C | 76% | 1018.2 hPa | 0 mm | - | 136 W/m² | - |
| 1777649485 | 15° C | 75% | 1018.1 hPa | 0 mm | - | 211 W/m² | - |
| 1777649181 | 13.89° C | 79% | 1018.4 hPa | 0 mm | - | 119 W/m² | - |
| 1777648878 | 13.89° C | 80% | 1018 hPa | 0 mm | - | 116 W/m² | - |
| 1777648575 | 13.33° C | 80% | 1018.2 hPa | 0 mm | - | 145 W/m² | - |
| 1777648272 | 13.33° C | 81% | 1018.1 hPa | 0 mm | - | 192 W/m² | - |
| 1777647968 | 12.78° C | 82% | 1018.2 hPa | 0 mm | - | 173 W/m² | - |
| 1777647665 | 12.78° C | 83% | 1018 hPa | 0 mm | - | 137 W/m² | - |
| 1777647361 | 12.78° C | 83% | 1018.2 hPa | 0 mm | - | 149 W/m² | - |
| 1777647059 | 12.78° C | 83% | 1018 hPa | 0 mm | - | 135 W/m² | - |
| 1777646755 | 12.78° C | 83% | 1018 hPa | 0 mm | - | 130 W/m² | - |
| 1777646449 | 13.33° C | 82% | 1017.9 hPa | 0 mm | - | 130 W/m² | - |
| 1777646146 | 12.78° C | 85% | 1017.8 hPa | 0 mm | - | 130 W/m² | - |
| 1777645844 | 12.22° C | 86% | 1017.8 hPa | 0 mm | - | 127 W/m² | - |
| 1777645541 | 12.22° C | 86% | 1017.5 hPa | 0 mm | - | 120 W/m² | - |
| 1777645237 | 11.67° C | 87% | 1017.8 hPa | 0 mm | - | 105 W/m² | - |
| 1777644933 | 11.67° C | 87% | 1017.6 hPa | 0 mm | - | 84 W/m² | - |
| 1777644631 | 11.67° C | 88% | 1017.5 hPa | 0 mm | - | 66 W/m² | - |
| 1777644327 | 11.11° C | 88% | 1017.7 hPa | 0 mm | - | 56 W/m² | - |
| 1777644023 | 11.11° C | 88% | 1017.6 hPa | 0 mm | - | 53 W/m² | - |
| 1777643720 | 11.11° C | 89% | 1017.4 hPa | 0 mm | - | 46 W/m² | - |
| 1777642810 | 10.56° C | 89% | 1017.4 hPa | 0 mm | - | 37 W/m² | - |
* Rain latest hour (hover to see other rain measurements)
** Current wind speed in m/s (hover to see current wind gust speed)